Time;durP1;ratioP1;P1;durP2;ratioP2;P2;SDS_P1;SDS_P2;PMS_P1;PMS_P2;Temp;Humidity;BMP_temperature;BMP_pressure;BME280_temperature;BME280_humidity;BME280_pressure;Samples;Min_cycle;Max_cycle;Signal;HPM_P1;HPM_P2
2022/04/10 00:01:17;;;;;;;1.80;0.35;;;;;;;;;;7395427;19;20018;-79
2022/04/10 00:03:42;;;;;;;2.20;1.25;;;;;;;;;;7397641;19;20006;-79
2022/04/10 00:06:07;;;;;;;3.50;0.90;;;;;;;;;;7399131;19;20014;-79
2022/04/10 00:08:33;;;;;;;1.60;0.88;;;;;;;;;;7397411;19;20006;-79
2022/04/10 00:10:58;;;;;;;1.08;0.60;;;;;;;;;;7398263;19;19986;-79
2022/04/10 00:13:23;;;;;;;1.88;1.02;;;;;;;;;;7396833;19;20023;-80
2022/04/10 00:15:48;;;;;;;1.00;0.55;;;;;;;;;;7398222;19;20010;-79
2022/04/10 00:18:14;;;;;;;2.47;0.80;;;;;;;;;;7394161;19;20019;-79
2022/04/10 00:20:39;;;;;;;1.55;0.63;;;;;;;;;;7397822;19;20014;-79
2022/04/10 00:23:04;;;;;;;2.42;0.80;;;;;;;;;;7399552;19;20006;-79
2022/04/10 00:25:30;;;;;;;1.42;0.80;;;;;;;;;;7398160;19;20107;-79
2022/04/10 00:27:55;;;;;;;2.00;0.65;;;;;;;;;;7395617;19;20015;-79
2022/04/10 00:30:20;;;;;;;1.33;0.75;;;;;;;;;;7397845;19;20034;-79
2022/04/10 00:32:46;;;;;;;2.55;0.75;;;;;;;;;;7396819;19;20027;-78
2022/04/10 00:35:12;;;;;;;0.93;0.60;;;;;;;;;;7396431;19;19999;-79
2022/04/10 00:37:38;;;;;;;3.25;0.57;;;;;;;;;;7398001;19;20338;-79
2022/04/10 00:40:06;;;;;;;2.10;0.60;;;;;;;;;;7397933;19;20006;-78
2022/04/10 00:42:38;;;;;;;0.90;0.60;;;;;;;;;;7397239;19;20119;-79
2022/04/10 00:45:05;;;;;;;1.38;0.70;;;;;;;;;;7394867;19;20035;-79
2022/04/10 00:47:31;;;;;;;1.55;0.70;;;;;;;;;;7398266;19;20025;-78
2022/04/10 00:49:58;;;;;;;1.48;0.85;;;;;;;;;;7394818;19;20089;-79
2022/04/10 00:52:26;;;;;;;1.30;0.80;;;;;;;;;;7398171;19;20030;-78
2022/04/10 00:54:51;;;;;;;3.22;1.00;;;;;;;;;;7397589;19;20091;-79
2022/04/10 00:57:18;;;;;;;3.15;0.88;;;;;;;;;;7397863;19;20470;-79
2022/04/10 00:59:43;;;;;;;3.00;1.08;;;;;;;;;;7392509;19;20035;-79
2022/04/10 01:02:08;;;;;;;3.28;0.70;;;;;;;;;;7395878;19;20006;-79
2022/04/10 01:04:34;;;;;;;1.40;0.80;;;;;;;;;;7394722;19;20016;-79
2022/04/10 01:07:00;;;;;;;3.40;0.90;;;;;;;;;;7394053;19;20006;-79
2022/04/10 01:09:27;;;;;;;2.50;0.80;;;;;;;;;;7395464;19;20480;-80
2022/04/10 01:11:53;;;;;;;1.52;0.70;;;;;;;;;;7395391;19;20020;-79
2022/04/10 01:14:19;;;;;;;2.72;0.80;;;;;;;;;;7395368;19;20007;-79
2022/04/10 01:16:46;;;;;;;2.60;1.00;;;;;;;;;;7393177;19;19999;-81
2022/04/10 01:19:12;;;;;;;2.40;0.75;;;;;;;;;;7391805;19;20014;-80
2022/04/10 01:21:46;;;;;;;1.90;0.85;;;;;;;;;;7396309;19;20006;-79
2022/04/10 01:24:15;;;;;;;1.00;0.85;;;;;;;;;;7395965;19;20006;-80
2022/04/10 01:26:41;;;;;;;1.77;0.73;;;;;;;;;;7397190;19;20021;-80
2022/04/10 01:29:08;;;;;;;1.10;0.70;;;;;;;;;;7396346;19;20017;-80
2022/04/10 01:31:36;;;;;;;2.85;1.00;;;;;;;;;;7400788;19;20005;-80
2022/04/10 01:34:05;;;;;;;1.45;0.77;;;;;;;;;;7399001;19;20025;-81
2022/04/10 01:36:30;;;;;;;1.40;0.70;;;;;;;;;;7399537;19;20140;-80
2022/04/10 01:38:58;;;;;;;1.70;0.80;;;;;;;;;;7395049;19;20532;-80
2022/04/10 01:41:25;;;;;;;4.75;1.13;;;;;;;;;;7394357;19;19995;-80
2022/04/10 01:43:51;;;;;;;1.42;0.90;;;;;;;;;;7394733;19;20452;-80
2022/04/10 01:46:17;;;;;;;4.35;1.30;;;;;;;;;;7396247;19;20040;-80
2022/04/10 01:48:43;;;;;;;4.60;1.00;;;;;;;;;;7392818;19;19998;-81
2022/04/10 01:51:09;;;;;;;2.92;0.88;;;;;;;;;;7395606;19;20015;-80
2022/04/10 01:53:35;;;;;;;1.80;1.00;;;;;;;;;;7399074;19;20047;-80
2022/04/10 01:56:04;;;;;;;1.52;0.80;;;;;;;;;;7394295;19;20020;-82
2022/04/10 01:58:31;;;;;;;0.98;0.73;;;;;;;;;;7396385;19;19999;-80
2022/04/10 02:00:56;;;;;;;2.20;1.10;;;;;;;;;;7402543;19;20009;-79
2022/04/10 02:03:22;;;;;;;3.30;1.35;;;;;;;;;;7419369;19;20683;-79
2022/04/10 02:05:47;;;;;;;1.73;0.98;;;;;;;;;;7416882;19;20080;-80
2022/04/10 02:08:15;;;;;;;2.63;1.08;;;;;;;;;;7417543;19;20006;-79
2022/04/10 02:10:40;;;;;;;1.95;1.08;;;;;;;;;;7414356;19;20015;-79
2022/04/10 02:13:07;;;;;;;1.65;0.90;;;;;;;;;;7399003;19;20002;-79
2022/04/10 02:15:37;;;;;;;1.73;0.95;;;;;;;;;;7396135;19;20002;-80
2022/04/10 02:18:03;;;;;;;3.97;1.00;;;;;;;;;;7399035;19;20098;-80
2022/04/10 02:20:28;;;;;;;1.35;0.93;;;;;;;;;;7396817;19;20125;-79
2022/04/10 02:22:54;;;;;;;3.20;1.10;;;;;;;;;;7400880;19;20505;-80
2022/04/10 02:25:19;;;;;;;7.80;1.30;;;;;;;;;;7394414;19;20006;-79
2022/04/10 02:27:44;;;;;;;2.05;1.13;;;;;;;;;;7396714;19;19995;-79
2022/04/10 02:30:10;;;;;;;2.08;0.88;;;;;;;;;;7396397;19;19998;-79
2022/04/10 02:32:35;;;;;;;1.60;1.10;;;;;;;;;;7397484;19;20007;-80
2022/04/10 02:35:01;;;;;;;3.08;1.05;;;;;;;;;;7397410;19;20012;-79
2022/04/10 02:37:26;;;;;;;3.55;1.23;;;;;;;;;;7398189;19;20337;-79
2022/04/10 02:39:51;;;;;;;1.50;0.80;;;;;;;;;;7394427;19;20493;-79
2022/04/10 02:42:17;;;;;;;3.83;0.80;;;;;;;;;;7395232;19;19999;-79
2022/04/10 02:44:42;;;;;;;1.80;0.93;;;;;;;;;;7402022;19;20032;-79
2022/04/10 02:47:07;;;;;;;3.85;0.80;;;;;;;;;;7398411;19;20466;-79
2022/04/10 02:49:32;;;;;;;1.50;0.93;;;;;;;;;;7395548;19;20519;-79
2022/04/10 02:51:58;;;;;;;1.50;0.75;;;;;;;;;;7397076;19;20002;-80
2022/04/10 02:54:23;;;;;;;0.80;0.70;;;;;;;;;;7400800;19;20094;-79
2022/04/10 02:56:48;;;;;;;2.88;0.77;;;;;;;;;;7397836;19;20019;-79
2022/04/10 02:59:14;;;;;;;1.70;0.80;;;;;;;;;;7395282;19;20029;-79
2022/04/10 03:01:39;;;;;;;1.15;0.90;;;;;;;;;;7396896;19;20066;-79
2022/04/10 03:04:04;;;;;;;2.10;0.70;;;;;;;;;;7395193;19;20003;-79
2022/04/10 03:06:29;;;;;;;2.13;0.80;;;;;;;;;;7395604;19;20066;-79
2022/04/10 03:08:55;;;;;;;0.68;0.68;;;;;;;;;;7395667;19;20002;-80
2022/04/10 03:11:20;;;;;;;3.25;1.35;;;;;;;;;;7393253;19;20035;-79
2022/04/10 03:13:45;;;;;;;1.85;0.82;;;;;;;;;;7398692;19;20107;-79
2022/04/10 03:16:11;;;;;;;4.00;1.20;;;;;;;;;;7395300;19;20034;-79
2022/04/10 03:18:37;;;;;;;1.77;1.08;;;;;;;;;;7400238;19;19997;-79
2022/04/10 03:21:03;;;;;;;2.17;1.05;;;;;;;;;;7401685;19;20119;-79
2022/04/10 03:23:29;;;;;;;2.33;1.13;;;;;;;;;;7403364;19;20094;-80
2022/04/10 03:25:54;;;;;;;0.85;0.85;;;;;;;;;;7402496;19;20429;-78
2022/04/10 03:28:19;;;;;;;1.92;0.88;;;;;;;;;;7403136;19;20009;-80
2022/04/10 03:30:45;;;;;;;1.25;0.95;;;;;;;;;;7405220;19;20443;-79
2022/04/10 03:33:10;;;;;;;3.28;0.98;;;;;;;;;;7404383;19;20010;-79
2022/04/10 03:35:36;;;;;;;4.18;1.27;;;;;;;;;;7406101;19;19998;-79
2022/04/10 03:38:01;;;;;;;1.40;1.00;;;;;;;;;;7401883;19;20013;-79
2022/04/10 03:40:26;;;;;;;5.28;1.33;;;;;;;;;;7402880;19;19999;-79
2022/04/10 03:42:52;;;;;;;2.83;1.00;;;;;;;;;;7403079;19;20380;-80
2022/04/10 03:45:17;;;;;;;3.42;0.88;;;;;;;;;;7401913;19;20022;-80
2022/04/10 03:47:42;;;;;;;1.70;1.20;;;;;;;;;;7404170;19;20010;-79
2022/04/10 03:50:08;;;;;;;1.83;1.20;;;;;;;;;;7402443;19;20027;-79
2022/04/10 03:52:33;;;;;;;1.67;0.95;;;;;;;;;;7404701;19;20001;-79
2022/04/10 03:54:58;;;;;;;3.42;1.30;;;;;;;;;;7407176;19;20022;-79
2022/04/10 03:57:24;;;;;;;2.05;1.10;;;;;;;;;;7404962;19;20002;-79
2022/04/10 03:59:49;;;;;;;1.15;0.80;;;;;;;;;;7400821;19;19994;-79
2022/04/10 04:02:16;;;;;;;3.60;1.10;;;;;;;;;;7404532;19;20789;-79
2022/04/10 04:04:41;;;;;;;3.67;1.10;;;;;;;;;;7406617;19;20155;-79
2022/04/10 04:07:07;;;;;;;3.35;0.98;;;;;;;;;;7404152;19;20024;-80
2022/04/10 04:09:32;;;;;;;2.70;1.00;;;;;;;;;;7403071;19;19995;-79
2022/04/10 04:11:57;;;;;;;2.88;1.30;;;;;;;;;;7402860;19;20002;-79
2022/04/10 04:14:22;;;;;;;3.10;1.20;;;;;;;;;;7402837;19;19998;-79
2022/04/10 04:16:48;;;;;;;1.38;0.85;;;;;;;;;;7401891;19;20028;-79
2022/04/10 04:19:13;;;;;;;1.40;1.08;;;;;;;;;;7400872;19;20014;-80
2022/04/10 04:21:38;;;;;;;2.85;1.05;;;;;;;;;;7403563;19;19995;-79
2022/04/10 04:24:04;;;;;;;3.53;1.40;;;;;;;;;;7407661;19;20006;-79
2022/04/10 04:26:29;;;;;;;2.67;1.02;;;;;;;;;;7407389;19;20005;-79
2022/04/10 04:28:54;;;;;;;4.85;1.90;;;;;;;;;;7406067;19;20064;-79
2022/04/10 04:31:19;;;;;;;2.50;0.93;;;;;;;;;;7402852;19;20003;-80
2022/04/10 04:33:45;;;;;;;2.05;1.45;;;;;;;;;;7404493;19;20002;-79
2022/04/10 04:36:10;;;;;;;2.83;1.60;;;;;;;;;;7406031;19;20006;-79
2022/04/10 04:38:35;;;;;;;2.95;1.25;;;;;;;;;;7401585;19;19999;-80
2022/04/10 04:41:00;;;;;;;2.08;1.00;;;;;;;;;;7404194;19;20006;-80
2022/04/10 04:43:26;;;;;;;2.15;1.05;;;;;;;;;;7404777;19;20031;-79
2022/04/10 04:45:51;;;;;;;1.80;1.15;;;;;;;;;;7405785;19;20448;-79
2022/04/10 04:48:16;;;;;;;3.80;1.38;;;;;;;;;;7403999;19;19995;-80
2022/04/10 04:50:43;;;;;;;2.10;1.42;;;;;;;;;;7406229;19;20350;-79
2022/04/10 04:53:09;;;;;;;1.73;1.10;;;;;;;;;;7408583;19;20006;-79
2022/04/10 04:55:34;;;;;;;2.13;1.30;;;;;;;;;;7403825;19;20339;-79
2022/04/10 04:57:59;;;;;;;2.58;1.17;;;;;;;;;;7405120;19;20375;-79
2022/04/10 05:00:24;;;;;;;3.83;1.55;;;;;;;;;;7404593;19;20006;-80
2022/04/10 05:02:49;;;;;;;3.17;1.90;;;;;;;;;;7397461;19;20030;-80
2022/04/10 05:05:15;;;;;;;1.45;1.08;;;;;;;;;;7403667;19;20024;-80
2022/04/10 05:07:40;;;;;;;1.40;1.20;;;;;;;;;;7403585;19;20046;-80
2022/04/10 05:10:06;;;;;;;2.63;1.42;;;;;;;;;;7399464;19;20110;-79
2022/04/10 05:12:32;;;;;;;4.22;1.40;;;;;;;;;;7406916;19;20006;-79
2022/04/10 05:14:58;;;;;;;1.50;1.13;;;;;;;;;;7400684;19;20001;-80
2022/04/10 05:17:26;;;;;;;3.45;1.60;;;;;;;;;;7403035;19;20685;-80
2022/04/10 05:19:52;;;;;;;7.82;1.70;;;;;;;;;;7403782;19;20015;-79
2022/04/10 05:22:17;;;;;;;1.35;1.23;;;;;;;;;;7404086;19;20032;-80
2022/04/10 05:24:42;;;;;;;3.42;1.35;;;;;;;;;;7404581;19;20002;-80
2022/04/10 05:27:10;;;;;;;4.63;2.08;;;;;;;;;;7405686;19;20002;-80
2022/04/10 05:29:35;;;;;;;4.47;1.70;;;;;;;;;;7405357;19;20164;-80
2022/04/10 05:32:00;;;;;;;4.75;1.55;;;;;;;;;;7405731;19;20064;-80
2022/04/10 05:34:26;;;;;;;2.10;1.52;;;;;;;;;;7416570;19;20084;-80
2022/04/10 05:36:51;;;;;;;2.83;1.52;;;;;;;;;;7404002;19;19999;-79
2022/04/10 05:39:16;;;;;;;2.60;1.40;;;;;;;;;;7393009;19;19994;-79
2022/04/10 05:41:41;;;;;;;4.93;1.55;;;;;;;;;;7397622;19;20021;-80
2022/04/10 05:44:07;;;;;;;2.33;1.45;;;;;;;;;;7396574;19;20485;-79
2022/04/10 05:46:32;;;;;;;1.73;1.20;;;;;;;;;;7398121;19;19994;-79
2022/04/10 05:48:57;;;;;;;1.30;1.20;;;;;;;;;;7396459;19;20007;-79
2022/04/10 05:51:23;;;;;;;3.60;1.70;;;;;;;;;;7398479;19;20086;-79
2022/04/10 05:53:48;;;;;;;3.85;1.90;;;;;;;;;;7399594;19;20006;-79
2022/04/10 05:56:13;;;;;;;3.78;1.80;;;;;;;;;;7395643;19;20458;-79
2022/04/10 05:58:38;;;;;;;4.90;1.65;;;;;;;;;;7396713;19;20027;-79
2022/04/10 06:01:04;;;;;;;2.38;1.50;;;;;;;;;;7395481;19;20030;-79
2022/04/10 06:03:29;;;;;;;2.00;1.33;;;;;;;;;;7396025;19;20511;-79
2022/04/10 06:05:54;;;;;;;4.63;1.75;;;;;;;;;;7395393;19;19994;-79
2022/04/10 06:08:19;;;;;;;1.50;1.40;;;;;;;;;;7395265;19;20461;-79
2022/04/10 06:10:45;;;;;;;3.45;1.80;;;;;;;;;;7398123;19;19994;-79
2022/04/10 06:13:10;;;;;;;2.50;1.58;;;;;;;;;;7393901;19;20025;-80
2022/04/10 06:15:36;;;;;;;2.88;1.70;;;;;;;;;;7396275;19;20007;-79
2022/04/10 06:18:01;;;;;;;3.58;2.00;;;;;;;;;;7394625;19;20003;-79
2022/04/10 06:20:27;;;;;;;3.55;1.92;;;;;;;;;;7395030;19;20335;-79
2022/04/10 06:22:52;;;;;;;7.72;2.22;;;;;;;;;;7395499;19;20014;-79
2022/04/10 06:25:17;;;;;;;3.45;1.65;;;;;;;;;;7398764;19;20006;-79
2022/04/10 06:27:42;;;;;;;3.78;2.38;;;;;;;;;;7394984;19;20003;-79
2022/04/10 06:30:08;;;;;;;4.28;1.88;;;;;;;;;;7395332;19;20034;-80
2022/04/10 06:32:33;;;;;;;4.00;2.00;;;;;;;;;;7395632;19;19995;-79
2022/04/10 06:34:59;;;;;;;5.40;1.70;;;;;;;;;;7395991;19;20015;-79
2022/04/10 06:37:24;;;;;;;2.88;1.45;;;;;;;;;;7397021;19;19999;-79
2022/04/10 06:39:49;;;;;;;3.60;1.75;;;;;;;;;;7397377;19;20017;-79
2022/04/10 06:42:14;;;;;;;2.33;1.52;;;;;;;;;;7396551;19;19999;-79
2022/04/10 06:44:43;;;;;;;2.97;1.90;;;;;;;;;;7395230;19;20059;-79
2022/04/10 06:47:08;;;;;;;6.95;2.30;;;;;;;;;;7396587;19;19998;-79
2022/04/10 06:49:34;;;;;;;5.18;2.00;;;;;;;;;;7398125;19;19994;-79
2022/04/10 06:52:00;;;;;;;1.90;1.60;;;;;;;;;;7403247;19;20118;-79
2022/04/10 06:54:25;;;;;;;4.85;1.67;;;;;;;;;;7407511;19;20010;-79
2022/04/10 06:56:50;;;;;;;5.32;2.10;;;;;;;;;;7404895;19;20474;-79
2022/04/10 06:59:15;;;;;;;4.38;2.08;;;;;;;;;;7402904;19;20012;-79
2022/04/10 07:01:41;;;;;;;6.80;2.33;;;;;;;;;;7404375;19;20010;-79
2022/04/10 07:04:06;;;;;;;3.22;2.03;;;;;;;;;;7404502;19;20041;-80
2022/04/10 07:06:31;;;;;;;4.35;2.38;;;;;;;;;;7402401;19;20442;-79
2022/04/10 07:08:59;;;;;;;4.03;2.30;;;;;;;;;;7404458;19;20335;-80
2022/04/10 07:11:24;;;;;;;5.07;2.38;;;;;;;;;;7405941;19;20014;-79
2022/04/10 07:13:50;;;;;;;2.15;1.70;;;;;;;;;;7404008;19;20002;-80
2022/04/10 07:16:15;;;;;;;5.45;2.33;;;;;;;;;;7403325;19;20022;-79
2022/04/10 07:18:41;;;;;;;4.70;2.15;;;;;;;;;;7394546;19;19998;-79
2022/04/10 07:21:06;;;;;;;3.03;2.20;;;;;;;;;;7395782;19;19998;-79
2022/04/10 07:23:43;;;;;;;4.10;2.30;;;;;;;;;;7396066;19;19995;-79
2022/04/10 07:26:18;;;;;;;4.05;2.35;;;;;;;;;;7397612;19;19994;-80
2022/04/10 07:28:43;;;;;;;6.07;2.35;;;;;;;;;;7397260;19;20335;-79
2022/04/10 07:31:09;;;;;;;4.97;2.50;;;;;;;;;;7396883;19;20003;-79
2022/04/10 07:33:36;;;;;;;3.50;2.22;;;;;;;;;;7395910;19;20002;-79
2022/04/10 07:36:01;;;;;;;3.05;1.73;;;;;;;;;;7395307;19;20058;-79
2022/04/10 07:38:27;;;;;;;7.82;2.90;;;;;;;;;;7394553;19;20029;-79
2022/04/10 07:40:53;;;;;;;5.40;2.38;;;;;;;;;;7396623;19;20018;-79
2022/04/10 07:43:18;;;;;;;4.50;2.50;;;;;;;;;;7396921;19;20054;-79
2022/04/10 07:48:27;;;;;;;4.88;2.08;;;;;;;;;;7396001;19;20024;-80
2022/04/10 07:50:53;;;;;;;5.07;2.60;;;;;;;;;;7398595;19;20380;-79
2022/04/10 07:53:18;;;;;;;6.22;2.20;;;;;;;;;;7401699;19;20006;-79
2022/04/10 07:55:43;;;;;;;6.38;2.67;;;;;;;;;;7394791;19;19994;-78
2022/04/10 07:58:09;;;;;;;4.55;2.15;;;;;;;;;;7391487;19;20114;-79
2022/04/10 08:00:34;;;;;;;3.63;1.73;;;;;;;;;;7399858;19;20476;-78
2022/04/10 08:03:00;;;;;;;3.53;2.08;;;;;;;;;;7392565;19;20054;-78
2022/04/10 08:05:26;;;;;;;6.70;2.80;;;;;;;;;;7392788;19;19998;-77
2022/04/10 08:07:51;;;;;;;6.95;2.40;;;;;;;;;;7394861;19;20010;-79
2022/04/10 08:10:16;;;;;;;3.53;1.70;;;;;;;;;;7394243;19;20003;-78
2022/04/10 08:12:43;;;;;;;3.22;2.00;;;;;;;;;;7394686;19;20006;-78
2022/04/10 08:15:09;;;;;;;2.50;1.88;;;;;;;;;;7394744;19;20821;-78
2022/04/10 08:17:35;;;;;;;2.63;1.77;;;;;;;;;;7394253;19;20538;-78
2022/04/10 08:20:04;;;;;;;2.55;1.90;;;;;;;;;;7391291;19;20010;-78
2022/04/10 08:22:31;;;;;;;4.78;2.28;;;;;;;;;;7394452;19;20501;-78
2022/04/10 08:25:03;;;;;;;2.58;2.08;;;;;;;;;;7393137;19;20079;-78
2022/04/10 08:27:30;;;;;;;4.15;1.88;;;;;;;;;;7394008;19;20005;-80
2022/04/10 08:29:55;;;;;;;4.10;2.15;;;;;;;;;;7390082;19;19999;-77
2022/04/10 08:32:21;;;;;;;4.07;1.77;;;;;;;;;;7393802;19;20021;-78
2022/04/10 08:34:46;;;;;;;6.50;2.20;;;;;;;;;;7391972;19;20062;-79
2022/04/10 08:37:11;;;;;;;4.43;1.88;;;;;;;;;;7392629;19;20003;-80
2022/04/10 08:39:37;;;;;;;4.20;1.80;;;;;;;;;;7390523;19;19998;-78
2022/04/10 08:42:05;;;;;;;3.15;1.65;;;;;;;;;;7395864;19;20003;-78
2022/04/10 08:44:31;;;;;;;1.92;1.45;;;;;;;;;;7395681;19;20059;-77
2022/04/10 08:46:58;;;;;;;8.13;3.25;;;;;;;;;;7391167;19;20435;-78
2022/04/10 08:49:31;;;;;;;5.85;2.17;;;;;;;;;;7393385;19;20022;-78
2022/04/10 08:51:58;;;;;;;6.07;2.17;;;;;;;;;;7390596;19;19994;-78
2022/04/10 08:54:25;;;;;;;2.67;1.73;;;;;;;;;;7391581;19;20475;-78
2022/04/10 08:56:50;;;;;;;7.28;2.00;;;;;;;;;;7391010;19;20142;-78
2022/04/10 08:59:17;;;;;;;3.53;2.22;;;;;;;;;;7389802;19;20011;-80
2022/04/10 09:01:42;;;;;;;3.22;1.67;;;;;;;;;;7391852;19;20026;-80
2022/04/10 09:04:08;;;;;;;2.40;1.75;;;;;;;;;;7388989;19;20006;-79
2022/04/10 09:06:38;;;;;;;3.58;2.08;;;;;;;;;;7405034;19;19999;-78
2022/04/10 09:09:11;;;;;;;5.20;2.30;;;;;;;;;;7420599;19;19994;-79
2022/04/10 09:11:38;;;;;;;6.30;1.90;;;;;;;;;;7424352;19;20036;-78
2022/04/10 09:14:03;;;;;;;5.32;1.80;;;;;;;;;;7423186;19;20009;-78
2022/04/10 09:16:28;;;;;;;6.70;2.20;;;;;;;;;;7425196;19;20007;-77
2022/04/10 09:18:56;;;;;;;2.72;1.60;;;;;;;;;;7390085;19;20517;-79
2022/04/10 09:21:28;;;;;;;2.47;1.27;;;;;;;;;;7391479;19;19994;-80
2022/04/10 09:24:08;;;;;;;4.28;2.28;;;;;;;;;;7391119;19;20668;-78
2022/04/10 09:26:47;;;;;;;2.55;1.63;;;;;;;;;;7400310;19;19997;-78
2022/04/10 09:29:21;;;;;;;4.25;1.50;;;;;;;;;;7400914;19;20078;-77
2022/04/10 09:31:47;;;;;;;3.78;1.23;;;;;;;;;;7389500;19;20013;-78
2022/04/10 09:34:22;;;;;;;2.10;1.60;;;;;;;;;;7390385;19;19990;-78
2022/04/10 09:36:58;;;;;;;2.95;1.63;;;;;;;;;;7389162;19;20025;-78
2022/04/10 09:39:32;;;;;;;5.10;1.88;;;;;;;;;;7388515;19;20089;-78
2022/04/10 09:42:12;;;;;;;3.95;1.80;;;;;;;;;;7390567;19;20094;-77
2022/04/10 09:44:39;;;;;;;3.08;1.52;;;;;;;;;;7388912;19;19998;-77
2022/04/10 09:47:08;;;;;;;3.72;1.42;;;;;;;;;;7389154;19;19998;-78
2022/04/10 09:49:36;;;;;;;2.70;1.10;;;;;;;;;;7388142;19;20027;-78
2022/04/10 09:52:03;;;;;;;2.25;1.40;;;;;;;;;;7389876;19;20026;-78
2022/04/10 09:54:46;;;;;;;4.60;1.45;;;;;;;;;;7389890;19;19994;-77
2022/04/10 09:57:16;;;;;;;2.33;1.40;;;;;;;;;;7388806;19;20021;-78
2022/04/10 09:59:45;;;;;;;2.03;1.17;;;;;;;;;;7389094;19;20123;-78
2022/04/10 10:02:12;;;;;;;6.80;1.50;;;;;;;;;;7388276;19;19995;-77
2022/04/10 10:04:39;;;;;;;2.08;0.95;;;;;;;;;;7387855;19;20007;-79
2022/04/10 10:07:08;;;;;;;2.28;1.10;;;;;;;;;;7388827;19;20010;-79
2022/04/10 10:09:35;;;;;;;1.35;1.10;;;;;;;;;;7386395;19;20009;-77
2022/04/10 10:12:02;;;;;;;3.80;1.23;;;;;;;;;;7392519;19;19995;-79
2022/04/10 10:14:31;;;;;;;3.85;1.20;;;;;;;;;;7387516;19;20037;-78
2022/04/10 10:17:01;;;;;;;3.90;1.50;;;;;;;;;;7391175;19;20102;-79
2022/04/10 10:19:29;;;;;;;2.53;1.40;;;;;;;;;;7387377;19;20340;-82
2022/04/10 10:21:56;;;;;;;2.67;1.35;;;;;;;;;;7393775;19;20014;-81
2022/04/10 10:24:24;;;;;;;5.43;1.33;;;;;;;;;;7393811;19;20395;-82
2022/04/10 10:26:58;;;;;;;1.67;1.33;;;;;;;;;;7392619;19;20002;-80
2022/04/10 10:29:54;;;;;;;1.52;0.93;;;;;;;;;;7392776;19;20007;-81
2022/04/10 10:32:33;;;;;;;2.33;1.38;;;;;;;;;;7393721;19;20006;-79
2022/04/10 10:34:58;;;;;;;3.92;1.23;;;;;;;;;;7389787;19;19999;-78
2022/04/10 10:37:31;;;;;;;2.80;1.10;;;;;;;;;;7391729;19;20001;-78
2022/04/10 10:39:58;;;;;;;1.80;1.10;;;;;;;;;;7388901;19;20458;-78
2022/04/10 10:42:23;;;;;;;2.58;1.20;;;;;;;;;;7394704;19;20002;-79
2022/04/10 10:44:50;;;;;;;2.53;1.05;;;;;;;;;;7392302;19;20062;-81
2022/04/10 10:47:22;;;;;;;2.45;1.42;;;;;;;;;;7389823;19;20021;-81
2022/04/10 10:49:48;;;;;;;3.80;1.75;;;;;;;;;;7388721;19;20065;-79
2022/04/10 10:52:15;;;;;;;3.38;1.48;;;;;;;;;;7390552;19;20447;-81
2022/04/10 10:54:58;;;;;;;3.90;1.25;;;;;;;;;;7390715;19;20006;-81
2022/04/10 10:57:37;;;;;;;2.17;1.10;;;;;;;;;;7391478;19;20003;-81
2022/04/10 11:00:11;;;;;;;2.10;1.00;;;;;;;;;;7388479;19;20010;-80
2022/04/10 11:02:38;;;;;;;2.72;1.10;;;;;;;;;;7390478;19;20005;-80
2022/04/10 11:05:25;;;;;;;3.40;1.23;;;;;;;;;;7392623;19;20055;-81
2022/04/10 11:08:10;;;;;;;1.83;1.02;;;;;;;;;;7391300;19;20019;-80
2022/04/10 11:10:37;;;;;;;1.65;1.00;;;;;;;;;;7391611;19;19999;-81
2022/04/10 11:13:06;;;;;;;2.20;1.40;;;;;;;;;;7392812;19;19999;-79
2022/04/10 11:15:47;;;;;;;2.60;1.20;;;;;;;;;;7393011;19;19995;-81
2022/04/10 11:18:25;;;;;;;6.47;2.03;;;;;;;;;;7389106;19;19999;-80
2022/04/10 11:20:58;;;;;;;2.72;1.40;;;;;;;;;;7391233;19;20174;-81
2022/04/10 11:23:29;;;;;;;3.03;1.25;;;;;;;;;;7388656;19;20022;-80
2022/04/10 11:25:54;;;;;;;1.85;1.10;;;;;;;;;;7392385;19;20494;-81
2022/04/10 11:28:23;;;;;;;1.67;0.90;;;;;;;;;;7390053;19;20019;-81
2022/04/10 11:30:48;;;;;;;2.28;1.17;;;;;;;;;;7392791;19;19998;-80
2022/04/10 11:33:14;;;;;;;2.60;1.02;;;;;;;;;;7392098;19;20408;-81
2022/04/10 11:35:42;;;;;;;3.20;0.88;;;;;;;;;;7388105;19;20056;-80
2022/04/10 11:38:17;;;;;;;2.35;1.30;;;;;;;;;;7394223;19;20010;-80
2022/04/10 11:40:49;;;;;;;;;;;;;;;;;;7397027;19;20090;-81
2022/04/10 11:43:16;;;;;;;1.63;1.20;;;;;;;;;;7400631;19;19926;-80
2022/04/10 11:45:43;;;;;;;3.05;1.27;;;;;;;;;;7396954;19;20346;-80
2022/04/10 11:48:09;;;;;;;2.60;1.23;;;;;;;;;;7396206;19;20546;-81
2022/04/10 11:50:34;;;;;;;1.75;1.10;;;;;;;;;;7396931;19;19990;-80
2022/04/10 11:53:08;;;;;;;2.88;1.25;;;;;;;;;;7397943;19;20122;-81
2022/04/10 11:55:40;;;;;;;1.65;0.90;;;;;;;;;;7395703;19;20042;-80
2022/04/10 11:58:15;;;;;;;1.15;0.90;;;;;;;;;;7396150;19;20007;-81
2022/04/10 12:01:07;;;;;;;1.88;0.95;;;;;;;;;;7397110;19;20373;-80
2022/04/10 12:03:35;;;;;;;4.63;1.30;;;;;;;;;;7399010;19;20475;-80
2022/04/10 12:06:03;;;;;;;4.75;1.50;;;;;;;;;;7395877;19;20011;-80
2022/04/10 12:08:29;;;;;;;4.90;1.17;;;;;;;;;;7393670;19;19998;-80
2022/04/10 12:10:55;;;;;;;2.45;1.30;;;;;;;;;;7395588;19;20027;-80
2022/04/10 12:13:21;;;;;;;2.63;1.10;;;;;;;;;;7399320;19;20018;-81
2022/04/10 12:16:01;;;;;;;1.20;1.10;;;;;;;;;;7393341;19;20007;-81
2022/04/10 12:18:27;;;;;;;4.32;1.27;;;;;;;;;;7393742;19;20006;-79
2022/04/10 12:21:02;;;;;;;4.68;1.60;;;;;;;;;;7394879;19;19994;-80
2022/04/10 12:23:28;;;;;;;1.63;1.00;;;;;;;;;;7395270;19;20003;-79
2022/04/10 12:25:55;;;;;;;2.70;1.42;;;;;;;;;;7397153;19;20002;-79
2022/04/10 12:28:21;;;;;;;3.17;1.23;;;;;;;;;;7396214;19;20070;-80
2022/04/10 12:30:48;;;;;;;2.88;1.30;;;;;;;;;;7396693;19;20005;-79
2022/04/10 12:33:13;;;;;;;4.57;1.80;;;;;;;;;;7393970;19;20003;-79
2022/04/10 12:35:40;;;;;;;2.97;1.10;;;;;;;;;;7394794;19;20026;-80
2022/04/10 12:38:06;;;;;;;1.73;1.00;;;;;;;;;;7394106;19;20002;-79
2022/04/10 12:40:32;;;;;;;2.53;1.30;;;;;;;;;;7396896;19;20003;-78
2022/04/10 12:43:02;;;;;;;2.13;1.20;;;;;;;;;;7399046;19;20306;-80
2022/04/10 12:45:31;;;;;;;3.53;1.10;;;;;;;;;;7398241;19;20021;-79
2022/04/10 12:47:57;;;;;;;3.17;1.42;;;;;;;;;;7395212;19;20066;-79
2022/04/10 12:50:24;;;;;;;2.33;1.20;;;;;;;;;;7393788;19;20019;-80
2022/04/10 12:52:55;;;;;;;3.05;1.15;;;;;;;;;;7397565;19;20058;-80
2022/04/10 12:55:24;;;;;;;2.47;1.00;;;;;;;;;;7403092;19;19999;-81
2022/04/10 12:57:54;;;;;;;1.13;0.82;;;;;;;;;;7396101;19;20003;-80
2022/04/10 13:00:25;;;;;;;2.08;1.20;;;;;;;;;;7394593;19;20010;-80
2022/04/10 13:02:50;;;;;;;4.80;1.30;;;;;;;;;;7396849;19;20002;-80
2022/04/10 13:05:17;;;;;;;7.18;1.63;;;;;;;;;;7394977;19;20477;-79
2022/04/10 13:08:12;;;;;;;3.75;1.13;;;;;;;;;;7397099;19;19995;-80
2022/04/10 13:10:50;;;;;;;3.25;1.02;;;;;;;;;;7395154;19;19995;-80
2022/04/10 13:13:15;;;;;;;2.92;1.20;;;;;;;;;;7405987;19;19998;-79
2022/04/10 13:15:40;;;;;;;2.28;1.27;;;;;;;;;;7400952;19;20002;-81
2022/04/10 13:18:09;;;;;;;4.47;1.42;;;;;;;;;;7397551;19;20014;-80
2022/04/10 13:20:39;;;;;;;2.03;1.35;;;;;;;;;;7398037;19;20002;-80
2022/04/10 13:23:05;;;;;;;1.52;1.23;;;;;;;;;;7399064;19;20003;-80
2022/04/10 13:25:35;;;;;;;5.47;1.88;;;;;;;;;;7396962;19;20009;-80
2022/04/10 13:28:01;;;;;;;5.25;1.55;;;;;;;;;;7395854;19;20413;-80
2022/04/10 13:30:27;;;;;;;3.50;1.80;;;;;;;;;;7396458;19;20003;-80
2022/04/10 13:32:52;;;;;;;3.20;1.27;;;;;;;;;;7398576;19;20007;-81
2022/04/10 13:35:17;;;;;;;3.78;1.50;;;;;;;;;;7399715;19;20014;-80
2022/04/10 13:37:44;;;;;;;3.63;1.38;;;;;;;;;;7397696;19;20055;-79
2022/04/10 13:40:11;;;;;;;4.22;1.45;;;;;;;;;;7395735;19;19998;-81
2022/04/10 13:42:36;;;;;;;2.50;1.30;;;;;;;;;;7397275;19;20026;-80
2022/04/10 13:45:02;;;;;;;1.77;1.33;;;;;;;;;;7397588;19;20010;-81
2022/04/10 13:47:28;;;;;;;2.65;1.10;;;;;;;;;;7398093;19;20081;-81
2022/04/10 13:49:53;;;;;;;2.85;1.90;;;;;;;;;;7399086;19;20090;-81
2022/04/10 13:52:19;;;;;;;2.28;1.30;;;;;;;;;;7396425;19;20020;-81
2022/04/10 13:54:44;;;;;;;1.80;1.25;;;;;;;;;;7402881;19;20006;-81
2022/04/10 13:57:09;;;;;;;2.67;1.25;;;;;;;;;;7397013;19;20056;-81
2022/04/10 13:59:35;;;;;;;2.72;1.38;;;;;;;;;;7397485;19;20009;-81
2022/04/10 14:02:03;;;;;;;2.00;1.20;;;;;;;;;;7399538;19;20379;-81
2022/04/10 14:04:29;;;;;;;2.72;1.23;;;;;;;;;;7403414;19;20015;-81
2022/04/10 14:06:55;;;;;;;1.88;1.33;;;;;;;;;;7399517;19;19995;-81
2022/04/10 14:09:20;;;;;;;3.63;1.20;;;;;;;;;;7402188;19;19999;-78
2022/04/10 14:11:46;;;;;;;12.13;1.42;;;;;;;;;;7398688;19;19994;-79
2022/04/10 14:14:11;;;;;;;3.40;1.30;;;;;;;;;;7393791;19;20007;-79
2022/04/10 14:16:37;;;;;;;2.15;1.45;;;;;;;;;;7394517;19;20035;-80
2022/04/10 14:19:02;;;;;;;1.85;1.17;;;;;;;;;;7393407;19;20014;-80
2022/04/10 14:21:30;;;;;;;1.77;1.30;;;;;;;;;;7392527;19;20048;-79
2022/04/10 14:23:55;;;;;;;3.17;1.30;;;;;;;;;;7392960;19;20120;-80
2022/04/10 14:26:21;;;;;;;2.97;1.27;;;;;;;;;;7396574;19;20007;-79
2022/04/10 14:28:46;;;;;;;2.28;1.23;;;;;;;;;;7393083;19;20049;-80
2022/04/10 14:31:11;;;;;;;3.45;1.52;;;;;;;;;;7394541;19;20027;-80
2022/04/10 14:33:37;;;;;;;2.97;1.33;;;;;;;;;;7392984;19;20005;-80
2022/04/10 14:36:02;;;;;;;1.75;1.30;;;;;;;;;;7396627;19;20474;-80
2022/04/10 14:38:28;;;;;;;6.70;2.88;;;;;;;;;;7396711;19;19999;-79
2022/04/10 14:40:54;;;;;;;5.20;2.15;;;;;;;;;;7395577;19;20008;-78
2022/04/10 14:43:19;;;;;;;5.15;1.80;;;;;;;;;;7391507;19;20027;-76
2022/04/10 14:45:45;;;;;;;3.50;1.40;;;;;;;;;;7384177;19;20007;-76